sensor_id;sensor_type;location;lat;lon;timestamp;pressure;altitude;pressure_sealevel;temperature;humidity
60319;BME280;46163;52.306;5.634;2023-02-13T00:01:42;103661.53;;;16.26;52.90
60319;BME280;46163;52.306;5.634;2023-02-13T00:04:08;103658.00;;;16.26;52.86
60319;BME280;46163;52.306;5.634;2023-02-13T00:06:33;103658.16;;;16.24;52.86
60319;BME280;46163;52.306;5.634;2023-02-13T00:08:59;103660.00;;;16.24;53.16
60319;BME280;46163;52.306;5.634;2023-02-13T00:11:24;103664.53;;;16.23;52.99
60319;BME280;46163;52.306;5.634;2023-02-13T00:13:50;103662.88;;;16.22;52.95
60319;BME280;46163;52.306;5.634;2023-02-13T00:16:15;103652.31;;;16.21;52.81
60319;BME280;46163;52.306;5.634;2023-02-13T00:18:41;103655.16;;;16.19;52.96
60319;BME280;46163;52.306;5.634;2023-02-13T00:21:11;103647.28;;;16.18;52.90
60319;BME280;46163;52.306;5.634;2023-02-13T00:23:38;103653.66;;;16.17;52.86
60319;BME280;46163;52.306;5.634;2023-02-13T00:26:13;103647.59;;;16.15;52.69
60319;BME280;46163;52.306;5.634;2023-02-13T00:28:41;103652.13;;;16.14;52.59
60319;BME280;46163;52.306;5.634;2023-02-13T00:31:09;103647.78;;;16.13;52.77
60319;BME280;46163;52.306;5.634;2023-02-13T00:33:36;103648.78;;;16.12;52.70
60319;BME280;46163;52.306;5.634;2023-02-13T00:36:15;103644.41;;;16.11;52.62
60319;BME280;46163;52.306;5.634;2023-02-13T00:38:41;103640.06;;;16.10;52.59
60319;BME280;46163;52.306;5.634;2023-02-13T00:41:07;103641.06;;;16.09;52.52
60319;BME280;46163;52.306;5.634;2023-02-13T00:43:34;103640.22;;;16.08;52.47
60319;BME280;46163;52.306;5.634;2023-02-13T00:46:00;103636.72;;;16.08;52.54
60319;BME280;46163;52.306;5.634;2023-02-13T00:48:27;103643.06;;;16.07;52.55
60319;BME280;46163;52.306;5.634;2023-02-13T00:50:52;103641.38;;;16.06;52.33
60319;BME280;46163;52.306;5.634;2023-02-13T00:53:19;103640.56;;;16.05;52.54
60319;BME280;46163;52.306;5.634;2023-02-13T00:55:45;103638.03;;;16.04;52.58
60319;BME280;46163;52.306;5.634;2023-02-13T00:58:11;103631.00;;;16.03;52.41
60319;BME280;46163;52.306;5.634;2023-02-13T01:00:37;103633.00;;;16.01;52.12
60319;BME280;46163;52.306;5.634;2023-02-13T01:03:03;103626.28;;;15.97;52.37
60319;BME280;46163;52.306;5.634;2023-02-13T01:05:28;103636.72;;;16.00;52.43
60319;BME280;46163;52.306;5.634;2023-02-13T01:07:54;103643.94;;;15.99;52.33
60319;BME280;46163;52.306;5.634;2023-02-13T01:10:20;103637.72;;;15.99;52.46
60319;BME280;46163;52.306;5.634;2023-02-13T01:12:45;103636.00;;;15.98;52.28
60319;BME280;46163;52.306;5.634;2023-02-13T01:15:14;103634.50;;;15.95;52.33
60319;BME280;46163;52.306;5.634;2023-02-13T01:17:39;103637.19;;;15.95;52.33
60319;BME280;46163;52.306;5.634;2023-02-13T01:20:09;103632.84;;;15.94;52.30
60319;BME280;46163;52.306;5.634;2023-02-13T01:22:35;103639.22;;;15.93;52.37
60319;BME280;46163;52.306;5.634;2023-02-13T01:25:00;103640.25;;;15.92;52.25
60319;BME280;46163;52.306;5.634;2023-02-13T01:27:27;103631.34;;;15.92;52.34
60319;BME280;46163;52.306;5.634;2023-02-13T01:29:53;103643.09;;;15.91;52.33
60319;BME280;46163;52.306;5.634;2023-02-13T01:32:19;103643.09;;;15.91;52.28
60319;BME280;46163;52.306;5.634;2023-02-13T01:34:44;103629.81;;;15.89;52.12
60319;BME280;46163;52.306;5.634;2023-02-13T01:37:10;103631.00;;;15.87;52.20
60319;BME280;46163;52.306;5.634;2023-02-13T01:39:35;103628.31;;;15.87;52.30
60319;BME280;46163;52.306;5.634;2023-02-13T01:42:01;103640.91;;;15.86;52.06
60319;BME280;46163;52.306;5.634;2023-02-13T01:44:49;103638.22;;;15.86;52.31
60319;BME280;46163;52.306;5.634;2023-02-13T01:47:41;103641.06;;;15.85;52.21
60319;BME280;46163;52.306;5.634;2023-02-13T01:52:51;103615.88;;;15.77;52.36
60319;BME280;46163;52.306;5.634;2023-02-13T01:55:18;103628.00;;;15.81;52.18
60319;BME280;46163;52.306;5.634;2023-02-13T01:57:49;103628.81;;;15.82;51.91
60319;BME280;46163;52.306;5.634;2023-02-13T02:00:16;103632.50;;;15.81;52.12
60319;BME280;46163;52.306;5.634;2023-02-13T02:02:46;103626.28;;;15.80;52.19
60319;BME280;46163;52.306;5.634;2023-02-13T02:05:13;103618.41;;;15.79;52.15
60319;BME280;46163;52.306;5.634;2023-02-13T02:07:41;103622.09;;;15.78;52.14
60319;BME280;46163;52.306;5.634;2023-02-13T02:10:17;103609.69;;;15.77;52.17
60319;BME280;46163;52.306;5.634;2023-02-13T02:12:49;103605.16;;;15.77;52.05
60319;BME280;46163;52.306;5.634;2023-02-13T02:15:16;103604.50;;;15.75;52.17
60319;BME280;46163;52.306;5.634;2023-02-13T02:17:42;103607.16;;;15.75;51.85
60319;BME280;46163;52.306;5.634;2023-02-13T02:21:00;103608.19;;;15.74;51.94
60319;BME280;46163;52.306;5.634;2023-02-13T02:38:05;103596.25;;;15.69;52.00
60319;BME280;46163;52.306;5.634;2023-02-13T02:43:14;103605.31;;;15.68;51.88
60319;BME280;46163;52.306;5.634;2023-02-13T02:48:42;103594.75;;;15.66;51.83
60319;BME280;46163;52.306;5.634;2023-02-13T02:51:37;103601.97;;;15.66;51.84
60319;BME280;46163;52.306;5.634;2023-02-13T02:57:04;103591.41;;;15.64;51.69
60319;BME280;46163;52.306;5.634;2023-02-13T02:59:33;103600.44;;;15.63;51.77
60319;BME280;46163;52.306;5.634;2023-02-13T03:02:20;103600.44;;;15.63;51.75
60319;BME280;46163;52.306;5.634;2023-02-13T03:05:24;103599.59;;;15.63;51.77
60319;BME280;46163;52.306;5.634;2023-02-13T03:08:11;103597.09;;;15.61;51.81
60319;BME280;46163;52.306;5.634;2023-02-13T03:10:37;103597.94;;;15.62;51.69
60319;BME280;46163;52.306;5.634;2023-02-13T03:13:40;103602.47;;;15.61;51.62
60319;BME280;46163;52.306;5.634;2023-02-13T03:16:11;103600.59;;;15.62;51.73
60319;BME280;46163;52.306;5.634;2023-02-13T03:18:58;103592.69;;;15.60;51.69
60319;BME280;46163;52.306;5.634;2023-02-13T03:21:46;103594.53;;;15.60;51.76
60319;BME280;46163;52.306;5.634;2023-02-13T03:27:58;103597.56;;;15.57;51.63
60319;BME280;46163;52.306;5.634;2023-02-13T03:30:55;103600.91;;;15.59;51.57
60319;BME280;46163;52.306;5.634;2023-02-13T03:36:11;103592.19;;;15.57;51.51
60319;BME280;46163;52.306;5.634;2023-02-13T03:41:46;103594.88;;;15.57;51.63
60319;BME280;46163;52.306;5.634;2023-02-13T03:44:19;103592.38;;;15.55;51.64
60319;BME280;46163;52.306;5.634;2023-02-13T03:46:50;103598.72;;;15.54;51.60
60319;BME280;46163;52.306;5.634;2023-02-13T03:49:23;103598.72;;;15.54;51.60
60319;BME280;46163;52.306;5.634;2023-02-13T03:52:31;103602.41;;;15.53;51.60
60319;BME280;46163;52.306;5.634;2023-02-13T03:55:10;103594.38;;;15.53;51.67
60319;BME280;46163;52.306;5.634;2023-02-13T03:57:58;103590.00;;;15.52;51.45
60319;BME280;46163;52.306;5.634;2023-02-13T04:00:48;103588.31;;;15.51;51.69
60319;BME280;46163;52.306;5.634;2023-02-13T04:06:26;103585.66;;;15.51;51.54
60319;BME280;46163;52.306;5.634;2023-02-13T04:08:54;103589.50;;;15.48;51.61
60319;BME280;46163;52.306;5.634;2023-02-13T04:11:50;103593.03;;;15.49;51.52
60319;BME280;46163;52.306;5.634;2023-02-13T04:14:20;103601.09;;;15.49;51.36
60319;BME280;46163;52.306;5.634;2023-02-13T04:17:04;103599.25;;;15.49;51.57
60319;BME280;46163;52.306;5.634;2023-02-13T04:19:31;103595.72;;;15.49;51.61
60319;BME280;46163;52.306;5.634;2023-02-13T04:21:58;103593.03;;;15.49;51.63
60319;BME280;46163;52.306;5.634;2023-02-13T04:24:25;103586.66;;;15.50;51.67
60319;BME280;46163;52.306;5.634;2023-02-13T04:26:51;103587.31;;;15.52;51.37
60319;BME280;46163;52.306;5.634;2023-02-13T04:29:20;103576.25;;;15.47;51.53
60319;BME280;46163;52.306;5.634;2023-02-13T04:31:46;103591.84;;;15.60;51.36
60319;BME280;46163;52.306;5.634;2023-02-13T04:34:11;103595.75;;;15.65;51.34
60319;BME280;46163;52.306;5.634;2023-02-13T04:36:37;103590.72;;;15.70;51.18
60319;BME280;46163;52.306;5.634;2023-02-13T04:39:03;103584.69;;;15.76;51.16
60319;BME280;46163;52.306;5.634;2023-02-13T04:41:28;103583.19;;;15.82;51.07
60319;BME280;46163;52.306;5.634;2023-02-13T04:43:53;103584.16;;;15.89;50.78
60319;BME280;46163;52.306;5.634;2023-02-13T04:46:19;103584.16;;;15.97;50.62
60319;BME280;46163;52.306;5.634;2023-02-13T04:48:44;103573.91;;;16.09;50.19
60319;BME280;46163;52.306;5.634;2023-02-13T04:51:10;103579.28;;;16.17;50.33
60319;BME280;46163;52.306;5.634;2023-02-13T04:53:35;103577.41;;;16.26;50.21
60319;BME280;46163;52.306;5.634;2023-02-13T04:56:01;103584.06;;;16.38;49.91
60319;BME280;46163;52.306;5.634;2023-02-13T04:58:26;103568.75;;;16.47;49.83
60319;BME280;46163;52.306;5.634;2023-02-13T05:00:52;103564.38;;;16.54;49.50
60319;BME280;46163;52.306;5.634;2023-02-13T05:03:17;103568.03;;;16.61;49.49
60319;BME280;46163;52.306;5.634;2023-02-13T05:05:43;103559.97;;;16.69;49.16
60319;BME280;46163;52.306;5.634;2023-02-13T05:08:09;103565.47;;;16.76;49.03
60319;BME280;46163;52.306;5.634;2023-02-13T05:10:35;103558.38;;;16.83;49.04
60319;BME280;46163;52.306;5.634;2023-02-13T05:13:00;103562.22;;;16.88;48.67
60319;BME280;46163;52.306;5.634;2023-02-13T05:15:26;103558.00;;;16.94;48.87
60319;BME280;46163;52.306;5.634;2023-02-13T05:17:51;103549.38;;;16.99;48.50
60319;BME280;46163;52.306;5.634;2023-02-13T05:20:17;103554.91;;;17.05;48.43
60319;BME280;46163;52.306;5.634;2023-02-13T05:22:49;103552.50;;;17.10;48.46
60319;BME280;46163;52.306;5.634;2023-02-13T05:25:37;103558.19;;;17.15;48.08
60319;BME280;46163;52.306;5.634;2023-02-13T05:28:04;103557.81;;;17.18;48.18
60319;BME280;46163;52.306;5.634;2023-02-13T05:30:29;103559.16;;;17.22;47.91
60319;BME280;46163;52.306;5.634;2023-02-13T05:32:55;103552.56;;;17.25;48.06
60319;BME280;46163;52.306;5.634;2023-02-13T05:35:21;103557.44;;;17.30;48.16
60319;BME280;46163;52.306;5.634;2023-02-13T05:37:47;103554.06;;;17.28;47.86
60319;BME280;46163;52.306;5.634;2023-02-13T05:40:13;103561.88;;;17.37;47.84
60319;BME280;46163;52.306;5.634;2023-02-13T05:42:39;103563.41;;;17.40;47.81
60319;BME280;46163;52.306;5.634;2023-02-13T05:45:05;103562.19;;;17.42;47.84
60319;BME280;46163;52.306;5.634;2023-02-13T05:47:31;103548.38;;;17.45;47.74
60319;BME280;46163;52.306;5.634;2023-02-13T05:49:57;103551.38;;;17.50;47.59
60319;BME280;46163;52.306;5.634;2023-02-13T05:52:22;103549.97;;;17.55;47.85
60319;BME280;46163;52.306;5.634;2023-02-13T05:54:48;103542.28;;;17.51;47.93
60319;BME280;46163;52.306;5.634;2023-02-13T05:57:14;103551.59;;;17.64;47.80
60319;BME280;46163;52.306;5.634;2023-02-13T05:59:39;103558.28;;;17.68;47.47
60319;BME280;46163;52.306;5.634;2023-02-13T06:02:05;103562.16;;;17.73;47.18
60319;BME280;46163;52.306;5.634;2023-02-13T06:04:30;103564.47;;;17.76;47.33
60319;BME280;46163;52.306;5.634;2023-02-13T06:06:56;103554.16;;;17.80;47.24
60319;BME280;46163;52.306;5.634;2023-02-13T06:09:21;103547.41;;;17.84;47.22
60319;BME280;46163;52.306;5.634;2023-02-13T06:11:47;103544.53;;;17.86;46.99
60319;BME280;46163;52.306;5.634;2023-02-13T06:14:13;103545.66;;;17.91;46.95
60319;BME280;46163;52.306;5.634;2023-02-13T06:16:39;103556.44;;;17.91;47.06
60319;BME280;46163;52.306;5.634;2023-02-13T06:19:05;103556.25;;;17.93;47.07
60319;BME280;46163;52.306;5.634;2023-02-13T06:21:31;103557.91;;;17.94;47.04
60319;BME280;46163;52.306;5.634;2023-02-13T06:23:57;103550.47;;;17.96;46.78
60319;BME280;46163;52.306;5.634;2023-02-13T06:26:23;103560.22;;;17.97;46.88
60319;BME280;46163;52.306;5.634;2023-02-13T06:28:49;103561.91;;;17.98;47.20
60319;BME280;46163;52.306;5.634;2023-02-13T06:31:14;103562.56;;;18.00;47.17
60319;BME280;46163;52.306;5.634;2023-02-13T06:33:40;103558.03;;;18.00;47.36
60319;BME280;46163;52.306;5.634;2023-02-13T06:36:06;103572.97;;;18.03;47.48
60319;BME280;46163;52.306;5.634;2023-02-13T06:38:31;103564.69;;;18.04;47.37
60319;BME280;46163;52.306;5.634;2023-02-13T06:41:00;103570.56;;;18.08;47.61
60319;BME280;46163;52.306;5.634;2023-02-13T06:43:26;103582.19;;;18.08;47.58
60319;BME280;46163;52.306;5.634;2023-02-13T06:45:51;103566.47;;;18.12;47.47
60319;BME280;46163;52.306;5.634;2023-02-13T06:48:18;103557.25;;;18.06;47.17
60319;BME280;46163;52.306;5.634;2023-02-13T06:50:44;103574.84;;;18.17;47.46
60319;BME280;46163;52.306;5.634;2023-02-13T06:53:09;103576.53;;;18.18;47.24
60319;BME280;46163;52.306;5.634;2023-02-13T06:55:35;103580.72;;;18.21;47.10
60319;BME280;46163;52.306;5.634;2023-02-13T06:58:03;103589.81;;;18.20;47.05
60319;BME280;46163;52.306;5.634;2023-02-13T07:00:29;103595.66;;;18.23;47.08
60319;BME280;46163;52.306;5.634;2023-02-13T07:03:00;103592.97;;;18.23;47.12
60319;BME280;46163;52.306;5.634;2023-02-13T07:05:26;103592.31;;;18.21;47.34
60319;BME280;46163;52.306;5.634;2023-02-13T07:07:52;103585.72;;;18.24;47.58
60319;BME280;46163;52.306;5.634;2023-02-13T07:10:17;103583.41;;;18.21;47.40
60319;BME280;46163;52.306;5.634;2023-02-13T07:12:43;103591.97;;;18.24;47.65
60319;BME280;46163;52.306;5.634;2023-02-13T07:15:09;103594.47;;;18.26;47.72
60319;BME280;46163;52.306;5.634;2023-02-13T07:17:34;103587.03;;;18.28;47.95
60319;BME280;46163;52.306;5.634;2023-02-13T07:20:00;103592.88;;;18.31;48.28
60319;BME280;46163;52.306;5.634;2023-02-13T07:22:26;103595.03;;;18.36;48.02
60319;BME280;46163;52.306;5.634;2023-02-13T07:24:51;103595.03;;;18.36;48.07
60319;BME280;46163;52.306;5.634;2023-02-13T07:27:17;103597.16;;;18.41;48.29
60319;BME280;46163;52.306;5.634;2023-02-13T07:29:42;103602.56;;;18.41;48.06
60319;BME280;46163;52.306;5.634;2023-02-13T07:32:08;103605.91;;;18.43;48.36
60319;BME280;46163;52.306;5.634;2023-02-13T07:34:34;103602.19;;;18.44;48.12
60319;BME280;46163;52.306;5.634;2023-02-13T07:36:59;103602.00;;;18.45;48.06
60319;BME280;46163;52.306;5.634;2023-02-13T07:39:25;103603.88;;;18.45;47.86
60319;BME280;46163;52.306;5.634;2023-02-13T07:41:50;103599.31;;;18.45;47.77
60319;BME280;46163;52.306;5.634;2023-02-13T07:44:16;103605.91;;;18.43;47.82
60319;BME280;46163;52.306;5.634;2023-02-13T07:46:42;103602.19;;;18.44;47.81
60319;BME280;46163;52.306;5.634;2023-02-13T07:49:07;103611.13;;;18.44;47.91
60319;BME280;46163;52.306;5.634;2023-02-13T07:51:34;103610.28;;;18.44;47.75
60319;BME280;46163;52.306;5.634;2023-02-13T07:54:00;103619.22;;;18.44;47.89
60319;BME280;46163;52.306;5.634;2023-02-13T07:56:26;103608.44;;;18.44;48.14
60319;BME280;46163;52.306;5.634;2023-02-13T07:58:52;103603.50;;;18.48;48.12
60319;BME280;46163;52.306;5.634;2023-02-13T08:01:17;103614.09;;;18.49;48.21
60319;BME280;46163;52.306;5.634;2023-02-13T08:03:47;103607.03;;;18.48;48.00
60319;BME280;46163;52.306;5.634;2023-02-13T08:06:17;103601.16;;;18.45;47.79
60319;BME280;46163;52.306;5.634;2023-02-13T08:08:42;103609.16;;;18.53;47.97
60319;BME280;46163;52.306;5.634;2023-02-13T08:11:21;103614.38;;;18.54;47.87
60319;BME280;46163;52.306;5.634;2023-02-13T08:14:06;103607.94;;;18.55;47.88
60319;BME280;46163;52.306;5.634;2023-02-13T08:16:32;103611.28;;;18.57;47.79
60319;BME280;46163;52.306;5.634;2023-02-13T08:18:57;103608.59;;;18.57;47.90
60319;BME280;46163;52.306;5.634;2023-02-13T08:21:25;103615.66;;;18.58;47.82
60319;BME280;46163;52.306;5.634;2023-02-13T08:23:51;103616.50;;;18.59;47.65
60319;BME280;46163;52.306;5.634;2023-02-13T08:26:16;103615.50;;;18.60;47.53
60319;BME280;46163;52.306;5.634;2023-02-13T08:28:42;103613.63;;;18.60;47.70
60319;BME280;46163;52.306;5.634;2023-02-13T08:31:11;103614.91;;;18.64;47.51
60319;BME280;46163;52.306;5.634;2023-02-13T08:33:36;103617.63;;;18.64;47.56
60319;BME280;46163;52.306;5.634;2023-02-13T08:36:03;103622.03;;;18.66;47.55
60319;BME280;46163;52.306;5.634;2023-02-13T08:38:28;103614.56;;;18.68;47.55
60319;BME280;46163;52.306;5.634;2023-02-13T08:40:55;103616.44;;;18.67;47.57
60319;BME280;46163;52.306;5.634;2023-02-13T08:43:21;103627.06;;;18.69;47.51
60319;BME280;46163;52.306;5.634;2023-02-13T08:45:46;103627.06;;;18.69;47.49
60319;BME280;46163;52.306;5.634;2023-02-13T08:48:12;103628.06;;;18.68;47.43
60319;BME280;46163;52.306;5.634;2023-02-13T08:50:37;103633.28;;;18.69;47.51
60319;BME280;46163;52.306;5.634;2023-02-13T08:53:03;103630.41;;;18.71;47.29
60319;BME280;46163;52.306;5.634;2023-02-13T08:55:28;103622.13;;;18.72;47.34
60319;BME280;46163;52.306;5.634;2023-02-13T08:57:59;103627.31;;;18.74;47.47
60319;BME280;46163;52.306;5.634;2023-02-13T09:00:25;103620.88;;;18.75;47.28
60319;BME280;46163;52.306;5.634;2023-02-13T09:02:50;103619.69;;;18.77;47.12
60319;BME280;46163;52.306;5.634;2023-02-13T09:05:15;103622.22;;;18.79;47.13
60319;BME280;46163;52.306;5.634;2023-02-13T09:07:41;103627.41;;;18.80;47.08
60319;BME280;46163;52.306;5.634;2023-02-13T09:10:07;103621.19;;;18.80;47.10
60319;BME280;46163;52.306;5.634;2023-02-13T09:12:32;103623.03;;;18.79;47.18
60319;BME280;46163;52.306;5.634;2023-02-13T09:14:58;103623.50;;;18.83;47.17
60319;BME280;46163;52.306;5.634;2023-02-13T09:17:23;103614.38;;;18.84;46.96
60319;BME280;46163;52.306;5.634;2023-02-13T09:19:49;103618.72;;;18.85;47.01
60319;BME280;46163;52.306;5.634;2023-02-13T09:22:14;103609.44;;;18.87;46.89
60319;BME280;46163;52.306;5.634;2023-02-13T09:24:41;103618.19;;;18.89;47.07
60319;BME280;46163;52.306;5.634;2023-02-13T09:27:06;103614.25;;;18.92;46.83
60319;BME280;46163;52.306;5.634;2023-02-13T09:29:33;103615.94;;;18.93;46.77
60319;BME280;46163;52.306;5.634;2023-02-13T09:31:59;103614.06;;;18.93;46.91
60319;BME280;46163;52.306;5.634;2023-02-13T09:34:25;103610.53;;;18.93;46.71
60319;BME280;46163;52.306;5.634;2023-02-13T09:36:53;103620.97;;;18.96;46.71
60319;BME280;46163;52.306;5.634;2023-02-13T09:39:19;103614.53;;;18.97;46.71
60319;BME280;46163;52.306;5.634;2023-02-13T09:41:48;103608.94;;;18.99;46.57
60319;BME280;46163;52.306;5.634;2023-02-13T09:44:19;103613.31;;;19.00;46.60
60319;BME280;46163;52.306;5.634;2023-02-13T09:47:17;103622.06;;;19.02;46.51
60319;BME280;46163;52.306;5.634;2023-02-13T09:49:50;103617.50;;;19.02;46.73
60319;BME280;46163;52.306;5.634;2023-02-13T09:52:17;103619.19;;;19.03;46.61
60319;BME280;46163;52.306;5.634;2023-02-13T09:54:42;103621.06;;;19.03;46.56
60319;BME280;46163;52.306;5.634;2023-02-13T09:59:57;103617.50;;;19.02;46.57
60319;BME280;46163;52.306;5.634;2023-02-13T10:18:49;103623.28;;;18.99;46.77
60319;BME280;46163;52.306;5.634;2023-02-13T10:21:22;103623.09;;;19.01;46.76
60319;BME280;46163;52.306;5.634;2023-02-13T10:24:00;103619.34;;;19.02;46.78
60319;BME280;46163;52.306;5.634;2023-02-13T10:26:41;103615.81;;;19.01;46.68
60319;BME280;46163;52.306;5.634;2023-02-13T10:29:20;103619.34;;;19.02;46.68
60319;BME280;46163;52.306;5.634;2023-02-13T10:32:08;103611.25;;;19.02;46.64
60319;BME280;46163;52.306;5.634;2023-02-13T10:34:41;103608.75;;;19.00;46.63
60319;BME280;46163;52.306;5.634;2023-02-13T10:37:19;103613.78;;;19.03;46.43
60319;BME280;46163;52.306;5.634;2023-02-13T10:39:48;103618.16;;;19.04;46.69
60319;BME280;46163;52.306;5.634;2023-02-13T10:50:35;103611.97;;;19.10;46.51
60319;BME280;46163;52.306;5.634;2023-02-13T10:53:52;103606.59;;;19.10;46.43
60319;BME280;46163;52.306;5.634;2023-02-13T10:56:40;103605.75;;;19.10;46.43
60319;BME280;46163;52.306;5.634;2023-02-13T11:02:28;103596.47;;;19.12;46.44
60319;BME280;46163;52.306;5.634;2023-02-13T11:05:02;103589.41;;;19.11;46.30
60319;BME280;46163;52.306;5.634;2023-02-13T11:07:35;103586.69;;;19.11;46.41
60319;BME280;46163;52.306;5.634;2023-02-13T11:10:05;103581.47;;;19.10;46.70
60319;BME280;46163;52.306;5.634;2023-02-13T11:12:37;103584.81;;;19.12;46.39
60319;BME280;46163;52.306;5.634;2023-02-13T11:15:05;103590.22;;;19.12;46.36
60319;BME280;46163;52.306;5.634;2023-02-13T11:17:39;103576.91;;;19.10;46.34
60319;BME280;46163;52.306;5.634;2023-02-13T11:22:56;103582.28;;;19.10;46.54
60319;BME280;46163;52.306;5.634;2023-02-13T11:25:52;103577.72;;;19.11;46.59
60319;BME280;46163;52.306;5.634;2023-02-13T11:28:19;103567.78;;;19.11;46.54
60319;BME280;46163;52.306;5.634;2023-02-13T11:30:45;103572.53;;;19.09;46.67
60319;BME280;46163;52.306;5.634;2023-02-13T11:35:45;103565.09;;;19.11;46.52
60319;BME280;46163;52.306;5.634;2023-02-13T11:40:44;103565.25;;;19.10;46.47
60319;BME280;46163;52.306;5.634;2023-02-13T11:43:43;103562.56;;;19.10;46.59
60319;BME280;46163;52.306;5.634;2023-02-13T11:46:23;103555.31;;;19.10;46.54
60319;BME280;46163;52.306;5.634;2023-02-13T11:49:04;103554.47;;;19.10;46.66
60319;BME280;46163;52.306;5.634;2023-02-13T11:51:42;103552.59;;;19.10;46.69
60319;BME280;46163;52.306;5.634;2023-02-13T11:56:50;103541.44;;;19.13;46.63
60319;BME280;46163;52.306;5.634;2023-02-13T11:59:16;103534.38;;;19.12;46.86
60319;BME280;46163;52.306;5.634;2023-02-13T12:01:42;103531.69;;;19.12;46.70
60319;BME280;46163;52.306;5.634;2023-02-13T12:04:14;103534.63;;;19.17;46.65
60319;BME280;46163;52.306;5.634;2023-02-13T12:07:03;103532.56;;;19.19;46.43
60319;BME280;46163;52.306;5.634;2023-02-13T12:09:38;103533.03;;;19.23;46.54
60319;BME280;46163;52.306;5.634;2023-02-13T12:12:04;103527.81;;;19.22;46.75
60319;BME280;46163;52.306;5.634;2023-02-13T12:14:36;103529.69;;;19.21;46.94
60319;BME280;46163;52.306;5.634;2023-02-13T12:17:05;103521.38;;;19.23;46.87
60319;BME280;46163;52.306;5.634;2023-02-13T12:19:40;103518.50;;;19.24;46.80
60319;BME280;46163;52.306;5.634;2023-02-13T12:36:01;103502.34;;;19.31;47.05
60319;BME280;46163;52.306;5.634;2023-02-13T12:38:55;103505.06;;;19.31;46.84
60319;BME280;46163;52.306;5.634;2023-02-13T12:41:37;103515.84;;;19.31;47.01
60319;BME280;46163;52.306;5.634;2023-02-13T12:47:23;103501.13;;;19.33;46.99
60319;BME280;46163;52.306;5.634;2023-02-13T12:52:41;103495.91;;;19.32;46.92
60319;BME280;46163;52.306;5.634;2023-02-13T13:14:52;103467.31;;;19.37;46.52
60319;BME280;46163;52.306;5.634;2023-02-13T13:17:30;103466.28;;;19.38;46.46
60319;BME280;46163;52.306;5.634;2023-02-13T13:28:37;103447.59;;;19.43;46.53
60319;BME280;46163;52.306;5.634;2023-02-13T13:31:05;103454.50;;;19.46;46.65
60319;BME280;46163;52.306;5.634;2023-02-13T13:33:32;103454.50;;;19.46;46.83
60319;BME280;46163;52.306;5.634;2023-02-13T13:36:10;103448.06;;;19.47;46.51
60319;BME280;46163;52.306;5.634;2023-02-13T13:44:15;103444.69;;;19.45;46.65
60319;BME280;46163;52.306;5.634;2023-02-13T13:46:49;103443.88;;;19.44;46.68
60319;BME280;46163;52.306;5.634;2023-02-13T13:51:45;103432.63;;;19.41;46.61
60319;BME280;46163;52.306;5.634;2023-02-13T14:05:09;103426.75;;;19.31;46.76
60319;BME280;46163;52.306;5.634;2023-02-13T14:07:41;103427.97;;;19.28;46.65
60319;BME280;46163;52.306;5.634;2023-02-13T14:12:58;103416.72;;;19.25;46.79
60319;BME280;46163;52.306;5.634;2023-02-13T14:18:18;103418.81;;;19.23;46.76
60319;BME280;46163;52.306;5.634;2023-02-13T14:25:48;103409.41;;;19.18;46.90
60319;BME280;46163;52.306;5.634;2023-02-13T14:28:21;103417.69;;;19.17;46.89
60319;BME280;46163;52.306;5.634;2023-02-13T14:30:49;103415.19;;;19.15;46.81
60319;BME280;46163;52.306;5.634;2023-02-13T14:33:27;103409.19;;;19.13;47.12
60319;BME280;46163;52.306;5.634;2023-02-13T14:36:06;103411.88;;;19.13;46.91
60319;BME280;46163;52.306;5.634;2023-02-13T14:38:33;103401.44;;;19.10;47.06
60319;BME280;46163;52.306;5.634;2023-02-13T14:41:00;103407.88;;;19.09;46.97
60319;BME280;46163;52.306;5.634;2023-02-13T14:43:38;103407.25;;;19.07;47.11
60319;BME280;46163;52.306;5.634;2023-02-13T14:46:28;103407.44;;;19.06;46.89
60319;BME280;46163;52.306;5.634;2023-02-13T14:49:00;103404.13;;;19.04;47.15
60319;BME280;46163;52.306;5.634;2023-02-13T14:51:36;103398.72;;;19.04;47.03
60319;BME280;46163;52.306;5.634;2023-02-13T14:56:59;103401.97;;;18.99;47.18
60319;BME280;46163;52.306;5.634;2023-02-13T14:59:33;103404.69;;;18.99;47.23
60319;BME280;46163;52.306;5.634;2023-02-13T15:04:46;103405.91;;;18.97;47.41
60319;BME280;46163;52.306;5.634;2023-02-13T15:07:19;103410.47;;;18.96;47.36
60319;BME280;46163;52.306;5.634;2023-02-13T15:09:50;103409.44;;;18.97;47.22
60319;BME280;46163;52.306;5.634;2023-02-13T15:12:34;103401.34;;;18.97;47.10
60319;BME280;46163;52.306;5.634;2023-02-13T15:15:01;103405.09;;;18.96;47.34
60319;BME280;46163;52.306;5.634;2023-02-13T15:17:32;103400.88;;;18.93;47.13
60319;BME280;46163;52.306;5.634;2023-02-13T15:22:45;103398.19;;;18.93;47.29
60319;BME280;46163;52.306;5.634;2023-02-13T15:25:40;103397.34;;;18.93;47.50
60319;BME280;46163;52.306;5.634;2023-02-13T15:28:07;103401.91;;;18.92;47.41
60319;BME280;46163;52.306;5.634;2023-02-13T15:30:40;103399.41;;;18.91;47.43
60319;BME280;46163;52.306;5.634;2023-02-13T15:33:17;103392.34;;;18.90;47.49
60319;BME280;46163;52.306;5.634;2023-02-13T15:35:45;103396.09;;;18.89;47.54
60319;BME280;46163;52.306;5.634;2023-02-13T15:38:36;103388.81;;;18.89;47.65
60319;BME280;46163;52.306;5.634;2023-02-13T15:41:12;103392.34;;;18.90;47.63
60319;BME280;46163;52.306;5.634;2023-02-13T15:43:48;103399.41;;;18.91;47.59
60319;BME280;46163;52.306;5.634;2023-02-13T15:46:42;103393.41;;;18.89;47.95
60319;BME280;46163;52.306;5.634;2023-02-13T15:49:15;103394.03;;;18.91;47.85
60319;BME280;46163;52.306;5.634;2023-02-13T15:51:42;103393.19;;;18.90;47.71
60319;BME280;46163;52.306;5.634;2023-02-13T15:54:34;103388.63;;;18.91;47.82